Time;durP1;ratioP1;P1;durP2;ratioP2;P2;SDS_P1;SDS_P2;PMS_P1;PMS_P2;Temp;Humidity;BMP_temperature;BMP_pressure;BME280_temperature;BME280_humidity;BME280_pressure;Samples;Min_cycle;Max_cycle;Signal;HPM_P1;HPM_P2
2023/10/18 00:02:16;;;;;;;16.20;13.73;;;;;;;;;;5033883;28;20442;-58
2023/10/18 00:04:43;;;;;;;16.77;12.90;;;;;;;;;;5024506;28;20415;-58
2023/10/18 00:07:11;;;;;;;18.23;13.13;;;;;;;;;;5024664;28;20407;-58
2023/10/18 00:09:46;;;;;;;18.38;14.20;;;;;;;;;;5021980;28;20410;-58
2023/10/18 00:12:12;;;;;;;17.13;12.43;;;;;;;;;;5019333;28;20678;-58
2023/10/18 00:14:39;;;;;;;18.65;13.55;;;;;;;;;;5015233;28;20403;-58
2023/10/18 00:17:05;;;;;;;17.30;13.52;;;;;;;;;;5024750;28;20482;-58
2023/10/18 00:19:30;;;;;;;15.40;12.43;;;;;;;;;;5024845;28;20414;-58
2023/10/18 00:21:55;;;;;;;18.87;14.70;;;;;;;;;;5024450;28;20962;-58
2023/10/18 00:24:21;;;;;;;18.50;13.63;;;;;;;;;;5026180;28;20513;-58
2023/10/18 00:26:46;;;;;;;17.55;14.02;;;;;;;;;;5023875;28;20924;-58
2023/10/18 00:29:12;;;;;;;19.43;14.33;;;;;;;;;;5023562;28;20414;-58
2023/10/18 00:31:37;;;;;;;16.87;13.60;;;;;;;;;;5019500;28;20909;-58
2023/10/18 00:34:05;;;;;;;17.83;13.65;;;;;;;;;;5016797;28;20468;-58
2023/10/18 00:36:32;;;;;;;17.92;13.85;;;;;;;;;;5015872;28;20762;-58
2023/10/18 00:38:57;;;;;;;17.42;13.75;;;;;;;;;;5021497;28;20407;-58
2023/10/18 00:41:25;;;;;;;17.50;13.00;;;;;;;;;;5025678;28;20440;-58
2023/10/18 00:43:52;;;;;;;17.43;12.90;;;;;;;;;;5029854;28;20409;-58
2023/10/18 00:46:18;;;;;;;17.65;13.63;;;;;;;;;;5022969;28;20403;-58
2023/10/18 00:48:44;;;;;;;19.25;13.70;;;;;;;;;;5024470;28;20405;-58
2023/10/18 00:51:11;;;;;;;17.48;13.77;;;;;;;;;;5028917;28;20494;-58
2023/10/18 00:53:38;;;;;;;16.23;13.03;;;;;;;;;;5021467;28;20691;-58
2023/10/18 00:56:04;;;;;;;16.33;12.82;;;;;;;;;;5000581;28;20399;-58
2023/10/18 00:58:31;;;;;;;20.40;14.05;;;;;;;;;;5018879;28;20745;-58
2023/10/18 01:00:56;;;;;;;18.00;13.13;;;;;;;;;;5031553;28;20460;-58
2023/10/18 01:03:28;;;;;;;19.90;14.60;;;;;;;;;;5029331;28;20413;-58
2023/10/18 01:05:59;;;;;;;19.17;14.05;;;;;;;;;;5032463;28;20477;-58
2023/10/18 01:08:24;;;;;;;17.38;13.63;;;;;;;;;;5034386;28;20394;-58
2023/10/18 01:10:51;;;;;;;17.10;13.37;;;;;;;;;;5029911;28;20908;-58
2023/10/18 01:13:20;;;;;;;18.90;14.60;;;;;;;;;;5028641;28;20407;-58
2023/10/18 01:15:45;;;;;;;19.45;14.20;;;;;;;;;;5031457;28;20411;-58
2023/10/18 01:18:11;;;;;;;17.45;14.07;;;;;;;;;;5022285;28;20467;-58
2023/10/18 01:20:40;;;;;;;19.15;14.48;;;;;;;;;;5021367;28;20628;-58
2023/10/18 01:23:07;;;;;;;17.67;13.77;;;;;;;;;;5026539;28;20426;-58
2023/10/18 01:25:32;;;;;;;17.67;13.48;;;;;;;;;;5035626;28;20827;-58
2023/10/18 01:27:57;;;;;;;18.57;13.33;;;;;;;;;;5030218;28;20997;-57
2023/10/18 01:30:23;;;;;;;17.93;13.67;;;;;;;;;;5029583;28;20399;-58
2023/10/18 01:32:48;;;;;;;16.92;12.90;;;;;;;;;;5034827;28;20989;-58
2023/10/18 01:35:15;;;;;;;18.00;13.13;;;;;;;;;;5030987;28;20411;-57
2023/10/18 01:37:43;;;;;;;18.52;14.50;;;;;;;;;;5030947;28;20414;-57
2023/10/18 01:40:20;;;;;;;17.00;13.13;;;;;;;;;;5026283;28;20396;-58
2023/10/18 01:42:48;;;;;;;16.80;13.25;;;;;;;;;;5024219;28;20455;-58
2023/10/18 01:45:21;;;;;;;17.65;13.63;;;;;;;;;;5020709;28;21096;-58
2023/10/18 01:47:47;;;;;;;17.08;13.40;;;;;;;;;;5029341;28;20449;-58
2023/10/18 01:50:13;;;;;;;17.83;13.38;;;;;;;;;;5034624;28;20842;-58
2023/10/18 01:52:39;;;;;;;17.63;13.43;;;;;;;;;;5031101;28;20384;-57
2023/10/18 01:55:06;;;;;;;19.85;13.80;;;;;;;;;;5030940;28;21066;-58
2023/10/18 01:57:32;;;;;;;20.08;13.77;;;;;;;;;;5033708;28;20411;-58
2023/10/18 01:59:58;;;;;;;17.25;13.40;;;;;;;;;;5028572;28;20419;-58
2023/10/18 02:02:23;;;;;;;17.90;13.03;;;;;;;;;;5000106;28;20427;-58
2023/10/18 02:04:49;;;;;;;18.97;14.17;;;;;;;;;;4998327;28;20491;-58
2023/10/18 02:07:21;;;;;;;18.80;14.13;;;;;;;;;;5000635;28;20399;-58
2023/10/18 02:09:48;;;;;;;18.37;13.60;;;;;;;;;;5005199;28;20422;-58
2023/10/18 02:12:18;;;;;;;19.37;13.63;;;;;;;;;;5005129;28;20419;-58
2023/10/18 02:14:44;;;;;;;16.83;13.13;;;;;;;;;;5006950;28;20476;-58
2023/10/18 02:17:10;;;;;;;16.80;12.43;;;;;;;;;;5007112;28;20494;-58
2023/10/18 02:19:36;;;;;;;16.77;13.17;;;;;;;;;;5006073;28;20428;-58
2023/10/18 02:22:02;;;;;;;17.67;13.07;;;;;;;;;;5007264;28;20507;-59
2023/10/18 02:24:27;;;;;;;16.77;13.07;;;;;;;;;;5005358;28;20415;-57
2023/10/18 02:26:54;;;;;;;18.42;12.93;;;;;;;;;;4998370;28;20415;-58
2023/10/18 02:29:20;;;;;;;18.85;13.75;;;;;;;;;;4998197;28;20910;-58
2023/10/18 02:31:45;;;;;;;18.47;13.70;;;;;;;;;;5005935;28;20416;-58
2023/10/18 02:34:14;;;;;;;19.80;13.80;;;;;;;;;;5006595;28;20786;-58
2023/10/18 02:36:40;;;;;;;18.50;13.85;;;;;;;;;;5006825;28;20988;-58
2023/10/18 02:39:07;;;;;;;19.05;13.75;;;;;;;;;;5005444;28;20409;-58
2023/10/18 02:41:37;;;;;;;16.88;13.40;;;;;;;;;;5006919;28;20480;-58
2023/10/18 02:44:05;;;;;;;17.58;13.52;;;;;;;;;;5005330;28;20417;-58
2023/10/18 02:46:33;;;;;;;18.90;13.50;;;;;;;;;;5003015;28;21026;-58
2023/10/18 02:49:00;;;;;;;18.17;13.53;;;;;;;;;;5022296;28;20792;-58
2023/10/18 02:51:26;;;;;;;19.98;14.02;;;;;;;;;;5031065;28;20908;-58
2023/10/18 02:53:53;;;;;;;18.00;13.70;;;;;;;;;;5026032;28;20419;-58
2023/10/18 02:56:20;;;;;;;20.25;13.80;;;;;;;;;;5028157;28;20392;-58
2023/10/18 02:58:46;;;;;;;19.05;14.02;;;;;;;;;;5028235;28;20407;-58
2023/10/18 03:01:14;;;;;;;20.88;14.70;;;;;;;;;;5037523;28;20421;-58
2023/10/18 03:03:40;;;;;;;23.40;15.68;;;;;;;;;;5047902;28;20412;-58
2023/10/18 03:06:08;;;;;;;17.83;13.45;;;;;;;;;;5046974;28;20393;-58
2023/10/18 03:08:33;;;;;;;18.60;13.63;;;;;;;;;;5046066;28;20430;-58
2023/10/18 03:11:00;;;;;;;18.97;14.50;;;;;;;;;;5046158;28;20419;-58
2023/10/18 03:13:26;;;;;;;20.40;14.48;;;;;;;;;;5047747;28;20405;-58
2023/10/18 03:16:05;;;;;;;18.25;14.05;;;;;;;;;;5046416;28;20404;-58
2023/10/18 03:18:31;;;;;;;20.02;14.52;;;;;;;;;;5044908;28;20519;-57
2023/10/18 03:20:57;;;;;;;18.52;14.23;;;;;;;;;;5043332;28;20532;-58
2023/10/18 03:23:22;;;;;;;20.07;14.70;;;;;;;;;;5045905;28;20573;-58
2023/10/18 03:25:59;;;;;;;19.85;15.20;;;;;;;;;;5036263;28;20924;-58
2023/10/18 03:28:25;;;;;;;20.60;14.85;;;;;;;;;;5045299;28;20756;-58
2023/10/18 03:30:50;;;;;;;21.20;14.70;;;;;;;;;;5047127;28;20404;-58
2023/10/18 03:33:15;;;;;;;21.30;14.87;;;;;;;;;;5046807;28;20433;-58
2023/10/18 03:35:43;;;;;;;18.42;14.25;;;;;;;;;;5044765;28;20405;-58
2023/10/18 03:38:21;;;;;;;21.27;15.45;;;;;;;;;;5046251;28;20421;-58
2023/10/18 03:40:56;;;;;;;22.80;16.67;;;;;;;;;;5047067;28;20452;-58
2023/10/18 03:43:26;;;;;;;21.95;15.70;;;;;;;;;;5024012;28;20414;-58
2023/10/18 03:48:40;;;;;;;20.20;15.23;;;;;;;;;;5018678;28;20458;-58
2023/10/18 03:51:06;;;;;;;19.87;14.97;;;;;;;;;;5023730;28;20572;-58
2023/10/18 03:53:31;;;;;;;20.13;14.87;;;;;;;;;;5024650;28;20497;-58
2023/10/18 03:55:57;;;;;;;21.30;15.50;;;;;;;;;;5025278;28;20409;-58
2023/10/18 03:58:24;;;;;;;19.43;14.33;;;;;;;;;;5023794;28;20813;-58
2023/10/18 04:01:01;;;;;;;21.92;15.35;;;;;;;;;;5013975;28;20845;-58
2023/10/18 04:03:29;;;;;;;19.83;15.10;;;;;;;;;;5005176;28;20429;-58
2023/10/18 04:05:56;;;;;;;20.63;14.98;;;;;;;;;;4998253;28;20412;-58
2023/10/18 04:08:22;;;;;;;21.08;14.60;;;;;;;;;;4996921;28;20906;-58
2023/10/18 04:10:55;;;;;;;22.80;15.18;;;;;;;;;;4999883;28;20478;-58
2023/10/18 04:13:24;;;;;;;19.80;14.00;;;;;;;;;;5006878;28;20937;-58
2023/10/18 04:15:59;;;;;;;18.70;14.68;;;;;;;;;;5004827;28;20493;-58
2023/10/18 04:18:30;;;;;;;21.53;14.63;;;;;;;;;;5003934;28;20396;-58
2023/10/18 04:21:05;;;;;;;18.45;13.77;;;;;;;;;;5007687;28;20401;-58
2023/10/18 04:23:30;;;;;;;18.35;13.82;;;;;;;;;;5005019;28;20408;-58
2023/10/18 04:26:03;;;;;;;18.30;13.55;;;;;;;;;;5002373;28;20423;-58
2023/10/18 04:28:30;;;;;;;18.83;14.05;;;;;;;;;;4996606;28;20409;-58
2023/10/18 04:30:59;;;;;;;18.48;13.60;;;;;;;;;;4999383;28;20905;-58
2023/10/18 04:33:28;;;;;;;19.20;13.93;;;;;;;;;;5005344;28;20403;-58
2023/10/18 04:35:56;;;;;;;20.98;14.18;;;;;;;;;;5009059;28;20524;-58
2023/10/18 04:38:23;;;;;;;19.02;13.65;;;;;;;;;;5009125;28;20405;-58
2023/10/18 04:41:02;;;;;;;18.77;14.18;;;;;;;;;;5012219;28;20766;-58
2023/10/18 04:43:27;;;;;;;18.23;13.80;;;;;;;;;;5007572;28;20977;-58
2023/10/18 04:45:56;;;;;;;20.10;14.27;;;;;;;;;;5008807;28;20474;-58
2023/10/18 04:48:43;;;;;;;16.90;12.95;;;;;;;;;;5007149;28;20402;-58
2023/10/18 04:51:07;;;;;;;19.52;14.05;;;;;;;;;;5000162;28;20587;-58
2023/10/18 04:53:33;;;;;;;19.53;13.77;;;;;;;;;;5000832;28;20950;-58
2023/10/18 04:55:58;;;;;;;17.52;13.15;;;;;;;;;;5002921;28;20767;-58
2023/10/18 04:58:27;;;;;;;20.17;13.83;;;;;;;;;;5007732;28;20424;-58
2023/10/18 05:01:07;;;;;;;17.75;13.43;;;;;;;;;;5014526;28;20410;-58
2023/10/18 05:03:32;;;;;;;18.15;13.48;;;;;;;;;;5026389;28;20535;-58
2023/10/18 05:05:58;;;;;;;20.00;13.97;;;;;;;;;;5043137;28;20946;-58
2023/10/18 05:08:23;;;;;;;18.33;13.50;;;;;;;;;;5041629;28;20389;-58
2023/10/18 05:10:52;;;;;;;17.67;13.03;;;;;;;;;;5038549;28;20403;-58
2023/10/18 05:13:32;;;;;;;19.55;13.65;;;;;;;;;;5034501;28;20409;-58
2023/10/18 05:15:59;;;;;;;19.50;13.73;;;;;;;;;;5034493;28;20394;-58
2023/10/18 05:18:25;;;;;;;19.08;13.23;;;;;;;;;;5024397;28;20395;-58
2023/10/18 05:23:24;;;;;;;18.38;13.23;;;;;;;;;;5041544;28;20471;-59
2023/10/18 05:25:58;;;;;;;19.20;13.30;;;;;;;;;;5028103;28;20728;-58
2023/10/18 05:28:25;;;;;;;17.65;13.13;;;;;;;;;;5041604;28;20472;-59
2023/10/18 05:31:26;;;;;;;17.63;13.35;;;;;;;;;;5027712;28;20569;-59
2023/10/18 05:33:48;;;;;;;19.10;13.85;;;;;;;;;;5040352;28;20389;-58
2023/10/18 05:38:50;;;;;;;59.70;37.22;;;;;;;;;;5034294;28;20481;-58
2023/10/18 05:41:45;;;;;;;68.07;41.88;;;;;;;;;;5033542;28;20413;-58
2023/10/18 05:44:01;;;;;;;22.52;16.00;;;;;;;;;;5027949;28;20419;-59
2023/10/18 05:46:27;;;;;;;23.33;15.23;;;;;;;;;;5021880;28;20399;-58
2023/10/18 05:48:55;;;;;;;18.43;13.37;;;;;;;;;;5022539;28;21100;-58
2023/10/18 05:53:50;;;;;;;19.77;13.57;;;;;;;;;;5022278;28;20406;-58
2023/10/18 05:56:15;;;;;;;16.85;13.32;;;;;;;;;;5021040;28;20415;-58
2023/10/18 05:58:41;;;;;;;19.77;13.97;;;;;;;;;;5014589;28;20519;-58
2023/10/18 06:01:06;;;;;;;18.80;12.97;;;;;;;;;;5001689;28;20417;-58
2023/10/18 06:03:41;;;;;;;21.40;14.20;;;;;;;;;;4995270;28;20400;-58
2023/10/18 06:06:07;;;;;;;18.38;12.43;;;;;;;;;;5001436;28;20405;-58
2023/10/18 06:08:32;;;;;;;16.50;12.27;;;;;;;;;;5002540;28;20444;-57
2023/10/18 06:11:01;;;;;;;19.03;13.20;;;;;;;;;;5006902;28;20933;-56
2023/10/18 06:13:27;;;;;;;17.67;13.45;;;;;;;;;;5005011;28;20397;-57
2023/10/18 06:15:52;;;;;;;17.17;13.37;;;;;;;;;;5008816;28;20408;-58
2023/10/18 06:18:22;;;;;;;23.27;15.60;;;;;;;;;;5006543;28;20934;-57
2023/10/18 06:20:52;;;;;;;17.10;12.85;;;;;;;;;;4999461;28;20409;-57
2023/10/18 06:25:49;;;;;;;18.52;12.98;;;;;;;;;;5000190;28;20414;-57
2023/10/18 06:28:20;;;;;;;15.77;12.70;;;;;;;;;;5004986;28;20410;-57
2023/10/18 06:30:49;;;;;;;17.20;12.82;;;;;;;;;;5005917;28;20756;-57
2023/10/18 06:33:15;;;;;;;17.50;12.60;;;;;;;;;;5006262;28;20466;-57
2023/10/18 06:35:42;;;;;;;16.30;12.73;;;;;;;;;;5013334;28;20400;-57
2023/10/18 06:38:09;;;;;;;16.40;12.50;;;;;;;;;;5006249;28;20418;-57
2023/10/18 06:40:43;;;;;;;19.80;12.93;;;;;;;;;;5007641;28;20405;-57
2023/10/18 06:43:09;;;;;;;17.67;12.80;;;;;;;;;;5002364;28;21034;-57
2023/10/18 06:45:40;;;;;;;17.60;12.60;;;;;;;;;;4998101;28;20411;-57
2023/10/18 06:48:08;;;;;;;16.25;12.45;;;;;;;;;;4998297;28;20411;-57
2023/10/18 06:50:33;;;;;;;17.10;13.07;;;;;;;;;;5005212;28;20412;-57
2023/10/18 06:52:59;;;;;;;18.40;13.00;;;;;;;;;;5006428;28;20407;-57
2023/10/18 06:55:43;;;;;;;17.83;12.25;;;;;;;;;;5004833;28;20836;-57
2023/10/18 06:58:22;;;;;;;16.93;13.07;;;;;;;;;;5005154;28;20405;-57
2023/10/18 07:00:51;;;;;;;17.80;12.20;;;;;;;;;;5023544;28;20470;-57
2023/10/18 07:03:17;;;;;;;17.67;12.98;;;;;;;;;;5044337;28;20418;-57
2023/10/18 07:05:44;;;;;;;17.73;13.27;;;;;;;;;;5047666;28;21023;-57
2023/10/18 07:08:19;;;;;;;15.40;11.18;;;;;;;;;;5046313;28;20413;-57
2023/10/18 07:10:54;;;;;;;15.30;11.57;;;;;;;;;;5045346;28;20405;-57
2023/10/18 07:13:32;;;;;;;16.98;12.38;;;;;;;;;;5047386;28;20417;-57
2023/10/18 07:15:58;;;;;;;13.55;11.35;;;;;;;;;;5047348;28;20832;-57
2023/10/18 07:18:24;;;;;;;17.57;11.53;;;;;;;;;;5046303;28;20418;-57
2023/10/18 07:20:50;;;;;;;16.90;12.23;;;;;;;;;;5045824;28;20417;-57
2023/10/18 07:23:20;;;;;;;16.30;11.48;;;;;;;;;;5046619;28;20413;-57
2023/10/18 07:25:46;;;;;;;15.00;11.25;;;;;;;;;;5047202;28;20401;-57
2023/10/18 07:28:11;;;;;;;16.33;10.97;;;;;;;;;;5044903;28;20416;-57
2023/10/18 07:30:37;;;;;;;15.85;11.70;;;;;;;;;;5046423;28;20896;-57
2023/10/18 07:33:03;;;;;;;15.73;11.43;;;;;;;;;;5047110;28;20401;-57
2023/10/18 07:35:31;;;;;;;15.27;11.23;;;;;;;;;;5045630;28;20745;-56
2023/10/18 07:37:57;;;;;;;16.35;11.32;;;;;;;;;;5045993;28;20923;-57
2023/10/18 07:40:23;;;;;;;14.87;10.97;;;;;;;;;;5046861;28;20408;-57
2023/10/18 07:42:54;;;;;;;14.38;10.43;;;;;;;;;;5042738;28;20418;-57
2023/10/18 07:45:21;;;;;;;14.30;11.00;;;;;;;;;;5037659;28;20757;-57
2023/10/18 07:47:53;;;;;;;14.18;10.75;;;;;;;;;;5046487;28;20414;-57
2023/10/18 07:50:34;;;;;;;15.20;11.10;;;;;;;;;;5045373;28;21204;-58
2023/10/18 07:53:00;;;;;;;14.23;10.77;;;;;;;;;;5045758;28;20401;-57
2023/10/18 07:55:27;;;;;;;15.15;11.25;;;;;;;;;;5045097;28;20409;-57
2023/10/18 07:57:54;;;;;;;15.40;11.00;;;;;;;;;;5046664;28;20428;-57
2023/10/18 08:00:21;;;;;;;15.38;10.50;;;;;;;;;;5039725;28;20926;-56
2023/10/18 08:02:47;;;;;;;13.13;10.25;;;;;;;;;;5024456;28;20960;-57
2023/10/18 08:05:18;;;;;;;14.05;10.10;;;;;;;;;;5024850;28;20434;-57
2023/10/18 08:07:49;;;;;;;15.30;10.70;;;;;;;;;;5011284;28;20397;-57
2023/10/18 08:10:19;;;;;;;16.13;10.77;;;;;;;;;;5024455;28;20462;-57
2023/10/18 08:12:48;;;;;;;15.25;10.50;;;;;;;;;;5017137;28;20397;-57
2023/10/18 08:15:13;;;;;;;15.13;11.20;;;;;;;;;;5023519;28;20415;-57
2023/10/18 08:17:46;;;;;;;15.13;10.87;;;;;;;;;;5024898;28;20809;-57
2023/10/18 08:22:46;;;;;;;15.40;11.10;;;;;;;;;;5025238;28;20980;-57
2023/10/18 08:25:22;;;;;;;13.18;9.80;;;;;;;;;;5024737;28;20498;-57
2023/10/18 08:27:48;;;;;;;13.25;9.85;;;;;;;;;;5026862;28;20438;-57
2023/10/18 08:30:23;;;;;;;14.48;9.85;;;;;;;;;;5026493;28;20427;-57
2023/10/18 08:32:50;;;;;;;15.50;10.25;;;;;;;;;;5024619;28;20403;-57
2023/10/18 08:35:19;;;;;;;15.35;10.30;;;;;;;;;;5025347;28;20938;-57
2023/10/18 08:37:45;;;;;;;13.10;9.60;;;;;;;;;;5026873;28;20477;-57
2023/10/18 08:40:37;;;;;;;13.53;10.07;;;;;;;;;;5025131;28;20509;-57
2023/10/18 08:43:05;;;;;;;14.18;9.93;;;;;;;;;;5024138;28;20431;-57
2023/10/18 08:45:36;;;;;;;15.80;9.55;;;;;;;;;;5023535;28;20396;-57
2023/10/18 08:48:09;;;;;;;13.50;9.90;;;;;;;;;;5025485;28;20740;-57
2023/10/18 08:50:34;;;;;;;12.43;9.40;;;;;;;;;;5025189;28;20398;-57
2023/10/18 08:53:00;;;;;;;17.63;11.27;;;;;;;;;;5023143;28;20418;-57
2023/10/18 08:55:43;;;;;;;24.10;14.83;;;;;;;;;;5025748;28;20778;-57
2023/10/18 08:58:10;;;;;;;33.63;18.33;;;;;;;;;;5025153;28;20476;-57
2023/10/18 09:01:02;;;;;;;37.70;19.75;;;;;;;;;;5023235;28;20418;-57
2023/10/18 09:03:24;;;;;;;24.77;14.73;;;;;;;;;;5023738;28;21084;-58
2023/10/18 09:05:49;;;;;;;24.95;13.48;;;;;;;;;;5026493;28;20403;-57
2023/10/18 09:08:19;;;;;;;16.40;11.93;;;;;;;;;;5024280;28;20469;-57
2023/10/18 09:10:48;;;;;;;10.70;8.07;;;;;;;;;;5022845;28;20407;-57
2023/10/18 09:18:19;;;;;;;14.23;8.25;;;;;;;;;;5025004;28;20415;-57
2023/10/18 09:20:45;;;;;;;11.30;7.53;;;;;;;;;;5024990;28;20406;-58
2023/10/18 09:23:16;;;;;;;9.75;7.55;;;;;;;;;;5027664;28;20415;-57
2023/10/18 09:25:48;;;;;;;9.33;6.90;;;;;;;;;;5029820;28;20391;-57
2023/10/18 09:28:18;;;;;;;10.57;7.55;;;;;;;;;;5026989;28;20423;-57
2023/10/18 09:30:44;;;;;;;11.73;7.32;;;;;;;;;;5029049;28;21075;-57
2023/10/18 09:33:13;;;;;;;9.53;6.60;;;;;;;;;;5029202;28;20415;-57
2023/10/18 09:35:39;;;;;;;11.85;7.03;;;;;;;;;;5028754;28;20403;-57
2023/10/18 09:38:07;;;;;;;11.23;7.20;;;;;;;;;;5027516;28;20460;-58
2023/10/18 09:40:34;;;;;;;11.52;7.15;;;;;;;;;;5029656;28;20450;-57
2023/10/18 09:43:00;;;;;;;9.70;6.60;;;;;;;;;;5027922;28;20443;-57
2023/10/18 09:45:26;;;;;;;8.98;6.20;;;;;;;;;;5026550;28;20427;-57
2023/10/18 09:47:51;;;;;;;9.57;6.20;;;;;;;;;;5028370;28;20427;-57
2023/10/18 09:50:23;;;;;;;11.68;6.45;;;;;;;;;;5028800;28;20469;-57
2023/10/18 09:52:56;;;;;;;12.20;6.55;;;;;;;;;;5026564;28;20391;-57
2023/10/18 09:55:21;;;;;;;10.43;6.20;;;;;;;;;;5027870;28;20399;-58
2023/10/18 09:57:59;;;;;;;9.05;6.47;;;;;;;;;;5028401;28;20415;-57
2023/10/18 10:00:26;;;;;;;11.73;6.88;;;;;;;;;;5036520;28;20395;-58
2023/10/18 10:02:52;;;;;;;9.77;6.18;;;;;;;;;;5059367;28;20502;-57
2023/10/18 10:05:24;;;;;;;8.90;5.90;;;;;;;;;;5046351;28;20408;-58
2023/10/18 10:07:52;;;;;;;9.13;6.30;;;;;;;;;;5031478;28;20407;-58
2023/10/18 10:10:19;;;;;;;8.98;6.13;;;;;;;;;;5061058;28;20396;-58
2023/10/18 10:12:44;;;;;;;9.07;5.80;;;;;;;;;;5044707;28;20499;-58
2023/10/18 10:15:14;;;;;;;8.63;5.80;;;;;;;;;;5064600;28;21107;-58
2023/10/18 10:17:41;;;;;;;8.30;5.90;;;;;;;;;;5058846;28;20900;-58
2023/10/18 10:20:10;;;;;;;7.97;5.50;;;;;;;;;;5058794;28;20431;-58
2023/10/18 10:22:37;;;;;;;10.15;5.93;;;;;;;;;;5047159;28;20400;-57
2023/10/18 10:25:04;;;;;;;7.97;5.47;;;;;;;;;;5064100;28;20426;-58
2023/10/18 10:30:19;;;;;;;8.35;5.70;;;;;;;;;;5062459;28;20400;-59
2023/10/18 10:32:45;;;;;;;8.77;6.05;;;;;;;;;;5048843;28;20824;-58
2023/10/18 10:35:15;;;;;;;9.07;5.63;;;;;;;;;;5062318;28;20921;-57
2023/10/18 10:37:48;;;;;;;9.43;5.80;;;;;;;;;;5059356;28;20412;-57
2023/10/18 10:40:35;;;;;;;8.50;5.68;;;;;;;;;;5062809;28;20743;-58
2023/10/18 10:43:13;;;;;;;8.30;5.65;;;;;;;;;;5048020;28;21505;-58
2023/10/18 10:45:38;;;;;;;8.13;5.70;;;;;;;;;;5055106;28;20762;-57
2023/10/18 10:48:31;;;;;;;8.83;5.47;;;;;;;;;;5056156;28;20406;-58
2023/10/18 10:50:56;;;;;;;9.27;5.33;;;;;;;;;;5051984;28;20419;-58
2023/10/18 10:53:48;;;;;;;9.17;5.70;;;;;;;;;;5063466;28;20404;-57
2023/10/18 10:56:36;;;;;;;9.65;5.47;;;;;;;;;;5062904;28;20902;-58
2023/10/18 10:59:03;;;;;;;7.22;5.35;;;;;;;;;;5061042;28;20945;-59
2023/10/18 11:01:39;;;;;;;7.43;5.32;;;;;;;;;;5049609;28;20904;-57
2023/10/18 11:04:14;;;;;;;7.22;5.00;;;;;;;;;;5044052;28;20886;-57
2023/10/18 11:06:43;;;;;;;8.27;5.20;;;;;;;;;;5047753;28;20409;-58
2023/10/18 11:09:15;;;;;;;7.78;5.18;;;;;;;;;;5044132;28;20412;-58
2023/10/18 11:11:42;;;;;;;7.30;4.78;;;;;;;;;;5040330;28;20417;-58
2023/10/18 11:14:07;;;;;;;8.57;5.17;;;;;;;;;;5046634;28;20405;-58
2023/10/18 11:16:32;;;;;;;7.82;5.13;;;;;;;;;;5045346;28;20411;-58
2023/10/18 11:19:00;;;;;;;7.75;5.00;;;;;;;;;;5046213;28;20805;-57
2023/10/18 11:21:28;;;;;;;7.93;4.72;;;;;;;;;;5029921;28;20393;-57
2023/10/18 11:23:57;;;;;;;6.88;4.50;;;;;;;;;;5031947;28;20419;-57
2023/10/18 11:26:25;;;;;;;7.07;4.67;;;;;;;;;;5042310;28;20397;-57
2023/10/18 11:28:55;;;;;;;7.38;4.65;;;;;;;;;;5046861;28;20437;-57
2023/10/18 11:31:21;;;;;;;7.97;5.05;;;;;;;;;;5046490;28;20456;-58
2023/10/18 11:33:47;;;;;;;8.73;5.15;;;;;;;;;;5046040;28;20401;-58
2023/10/18 11:36:17;;;;;;;7.55;4.90;;;;;;;;;;5045054;28;20401;-58
2023/10/18 11:39:07;;;;;;;6.63;4.43;;;;;;;;;;5047161;28;20401;-58
2023/10/18 11:41:34;;;;;;;7.30;4.67;;;;;;;;;;5046872;28;20977;-58
2023/10/18 11:43:59;;;;;;;8.57;4.57;;;;;;;;;;5044335;28;20409;-58
2023/10/18 11:46:25;;;;;;;6.75;4.45;;;;;;;;;;5045973;28;20581;-58
2023/10/18 11:48:51;;;;;;;6.90;4.47;;;;;;;;;;5042868;28;20408;-58
2023/10/18 11:51:16;;;;;;;7.93;4.43;;;;;;;;;;5039125;28;20425;-58
2023/10/18 11:53:41;;;;;;;7.27;4.57;;;;;;;;;;5045554;28;20497;-58
2023/10/18 11:56:09;;;;;;;6.97;4.30;;;;;;;;;;5046297;28;20904;-59
2023/10/18 11:58:35;;;;;;;7.20;4.70;;;;;;;;;;5046173;28;20409;-58
2023/10/18 12:03:28;;;;;;;7.70;4.63;;;;;;;;;;5024991;28;27741;-58
2023/10/18 12:05:54;;;;;;;7.03;3.90;;;;;;;;;;5026885;28;20402;-58
2023/10/18 12:08:22;;;;;;;6.90;4.30;;;;;;;;;;5024271;28;21572;-58
2023/10/18 12:10:48;;;;;;;7.55;4.35;;;;;;;;;;5026008;28;20410;-58
2023/10/18 12:13:13;;;;;;;7.87;4.57;;;;;;;;;;5026042;28;20430;-58
2023/10/18 12:15:39;;;;;;;7.27;4.27;;;;;;;;;;5025391;28;20417;-58
2023/10/18 12:18:05;;;;;;;7.60;4.17;;;;;;;;;;5024935;28;20508;-58
2023/10/18 12:20:37;;;;;;;6.53;4.00;;;;;;;;;;5026494;28;20387;-58
2023/10/18 12:23:02;;;;;;;6.00;3.90;;;;;;;;;;5026707;28;20411;-58
2023/10/18 12:25:28;;;;;;;7.50;4.07;;;;;;;;;;5023867;28;20418;-58
2023/10/18 12:27:53;;;;;;;6.60;3.90;;;;;;;;;;5026979;28;20489;-58
2023/10/18 12:30:28;;;;;;;7.73;4.03;;;;;;;;;;5025398;28;20411;-58
2023/10/18 12:32:53;;;;;;;6.95;3.95;;;;;;;;;;5024392;28;20797;-58
2023/10/18 12:35:20;;;;;;;6.33;3.77;;;;;;;;;;5023199;28;20411;-58
2023/10/18 12:37:46;;;;;;;8.35;4.10;;;;;;;;;;5025679;28;20396;-58
2023/10/18 12:43:00;;;;;;;7.13;3.83;;;;;;;;;;5022339;28;20766;-58
2023/10/18 12:45:25;;;;;;;6.70;3.97;;;;;;;;;;5025280;28;20399;-58
2023/10/18 12:47:51;;;;;;;7.67;3.63;;;;;;;;;;5026326;28;20421;-58
2023/10/18 12:50:18;;;;;;;6.03;3.90;;;;;;;;;;5024936;28;20433;-58
2023/10/18 12:52:44;;;;;;;6.67;4.20;;;;;;;;;;5025332;28;20399;-58
2023/10/18 12:57:54;;;;;;;6.10;4.13;;;;;;;;;;5030665;28;20398;-59
2023/10/18 13:00:23;;;;;;;6.40;4.40;;;;;;;;;;5031603;28;20425;-58
2023/10/18 13:02:51;;;;;;;6.95;4.00;;;;;;;;;;5042056;28;20422;-58
2023/10/18 13:05:17;;;;;;;6.30;3.58;;;;;;;;;;5049771;28;20428;-58
2023/10/18 13:07:43;;;;;;;6.78;3.70;;;;;;;;;;5048350;28;20439;-58
2023/10/18 13:10:11;;;;;;;6.95;3.75;;;;;;;;;;5048773;28;20406;-59
2023/10/18 13:12:38;;;;;;;7.63;3.90;;;;;;;;;;5049614;28;20398;-58
2023/10/18 13:15:04;;;;;;;6.07;3.72;;;;;;;;;;5047793;28;20429;-59
2023/10/18 13:17:32;;;;;;;6.25;3.65;;;;;;;;;;5048175;28;20435;-58
2023/10/18 13:19:58;;;;;;;6.10;3.97;;;;;;;;;;5050158;28;20393;-58
2023/10/18 13:22:25;;;;;;;7.45;4.07;;;;;;;;;;5049034;28;20386;-58
2023/10/18 13:24:50;;;;;;;7.07;3.60;;;;;;;;;;5047672;28;20479;-58
2023/10/18 13:27:18;;;;;;;6.28;3.70;;;;;;;;;;5048770;28;20607;-58
2023/10/18 13:30:00;;;;;;;6.50;3.70;;;;;;;;;;5048762;28;20405;-58
2023/10/18 13:32:25;;;;;;;7.72;4.35;;;;;;;;;;5045194;28;20435;-58
2023/10/18 13:34:50;;;;;;;7.03;3.87;;;;;;;;;;5024620;28;20411;-58
2023/10/18 13:37:19;;;;;;;6.60;3.70;;;;;;;;;;5022322;28;20767;-58
2023/10/18 13:39:47;;;;;;;6.00;3.90;;;;;;;;;;5024037;28;20399;-58
2023/10/18 13:42:13;;;;;;;7.00;4.00;;;;;;;;;;5031972;28;21233;-58
2023/10/18 13:44:41;;;;;;;5.63;3.90;;;;;;;;;;5029751;28;20413;-58
2023/10/18 13:47:07;;;;;;;8.05;4.00;;;;;;;;;;5030484;28;20405;-58
2023/10/18 13:49:33;;;;;;;7.30;3.80;;;;;;;;;;5031759;28;20423;-58
2023/10/18 13:51:59;;;;;;;6.43;3.80;;;;;;;;;;5035086;28;20526;-57
2023/10/18 13:54:25;;;;;;;6.03;4.20;;;;;;;;;;5029791;28;20401;-57
2023/10/18 13:56:50;;;;;;;6.80;3.85;;;;;;;;;;5023166;28;21020;-57
2023/10/18 13:59:16;;;;;;;7.73;3.67;;;;;;;;;;5018143;28;20403;-58
2023/10/18 14:01:42;;;;;;;6.45;4.15;;;;;;;;;;4992711;28;20684;-57
2023/10/18 14:04:08;;;;;;;7.65;3.92;;;;;;;;;;5007258;28;20423;-57
2023/10/18 14:06:33;;;;;;;5.68;3.95;;;;;;;;;;5011352;28;20925;-58
2023/10/18 14:08:59;;;;;;;7.50;3.83;;;;;;;;;;5011228;28;21453;-57
2023/10/18 14:11:25;;;;;;;5.57;3.77;;;;;;;;;;5009554;28;20876;-58
2023/10/18 14:13:51;;;;;;;6.83;4.30;;;;;;;;;;5012449;28;20444;-57
2023/10/18 14:16:17;;;;;;;6.82;4.10;;;;;;;;;;5009792;28;20530;-58
2023/10/18 14:18:44;;;;;;;7.55;3.75;;;;;;;;;;5004746;28;20493;-58
2023/10/18 14:21:13;;;;;;;7.00;4.10;;;;;;;;;;5002427;28;20424;-58
2023/10/18 14:23:43;;;;;;;6.38;3.90;;;;;;;;;;5004972;28;20415;-58
2023/10/18 14:26:09;;;;;;;8.18;4.43;;;;;;;;;;5013181;28;20571;-58
2023/10/18 14:28:34;;;;;;;6.32;4.00;;;;;;;;;;5010335;28;20894;-58
2023/10/18 14:31:00;;;;;;;7.03;4.50;;;;;;;;;;5010608;28;20420;-58
2023/10/18 14:33:28;;;;;;;6.40;4.10;;;;;;;;;;5008789;28;20403;-57
2023/10/18 14:35:53;;;;;;;7.40;4.10;;;;;;;;;;5005940;28;20759;-57
2023/10/18 14:38:18;;;;;;;7.35;4.35;;;;;;;;;;5010239;28;21269;-57
2023/10/18 14:40:44;;;;;;;7.20;4.40;;;;;;;;;;5007705;28;21325;-57
2023/10/18 14:43:10;;;;;;;7.10;4.53;;;;;;;;;;5001523;28;20569;-57
2023/10/18 14:45:35;;;;;;;6.47;4.50;;;;;;;;;;5002024;28;20440;-58
2023/10/18 14:48:02;;;;;;;6.67;4.20;;;;;;;;;;5007241;28;20433;-60
2023/10/18 14:50:27;;;;;;;7.18;4.07;;;;;;;;;;5009678;28;20451;-57
2023/10/18 14:52:53;;;;;;;7.80;4.23;;;;;;;;;;5009392;28;20404;-57
2023/10/18 14:55:18;;;;;;;7.57;3.97;;;;;;;;;;5011556;28;20504;-57
2023/10/18 14:57:43;;;;;;;6.23;4.03;;;;;;;;;;5011332;28;20405;-57
2023/10/18 15:00:19;;;;;;;6.77;4.20;;;;;;;;;;5012797;28;20427;-58
2023/10/18 15:02:47;;;;;;;7.85;4.03;;;;;;;;;;5029779;28;20918;-58
2023/10/18 15:05:14;;;;;;;7.88;3.90;;;;;;;;;;5023603;28;20474;-57